sensor_id;sensor_type;location;lat;lon;timestamp;pressure;altitude;pressure_sealevel;temperature;humidity
9281;BME280;4679;47.966;7.958;2022-09-09T05:39:22;96853.03;;;16.79;74.34
9281;BME280;4679;47.966;7.958;2022-09-09T05:41:24;96853.03;;;16.79;74.48
9281;BME280;4679;47.966;7.958;2022-09-09T05:43:26;96859.19;;;16.80;74.63
9281;BME280;4679;47.966;7.958;2022-09-09T05:45:29;96853.22;;;16.83;73.98
9281;BME280;4679;47.966;7.958;2022-09-09T05:47:30;96855.31;;;16.86;73.97
9281;BME280;4679;47.966;7.958;2022-09-09T05:49:32;96864.16;;;16.86;73.99
9281;BME280;4679;47.966;7.958;2022-09-09T05:51:34;96866.56;;;16.88;74.70
9281;BME280;4679;47.966;7.958;2022-09-09T05:53:35;96863.59;;;16.90;74.35
9281;BME280;4679;47.966;7.958;2022-09-09T05:55:39;96859.31;;;16.88;74.45
9281;BME280;4679;47.966;7.958;2022-09-09T05:57:40;96868.09;;;16.94;74.10
9281;BME280;4679;47.966;7.958;2022-09-09T05:59:42;96871.25;;;16.96;74.05
9281;BME280;4679;47.966;7.958;2022-09-09T06:01:44;96876.13;;;16.94;74.07
9281;BME280;4679;47.966;7.958;2022-09-09T06:03:47;96868.91;;;16.95;74.02
9281;BME280;4679;47.966;7.958;2022-09-09T06:05:57;96867.81;;;16.96;74.27
9281;BME280;4679;47.966;7.958;2022-09-09T06:07:58;96870.50;;;16.96;73.56
9281;BME280;4679;47.966;7.958;2022-09-09T06:10:00;96868.28;;;16.98;74.17
9281;BME280;4679;47.966;7.958;2022-09-09T06:12:04;96872.06;;;16.97;73.69
9281;BME280;4679;47.966;7.958;2022-09-09T06:14:06;96871.56;;;16.95;74.04
9281;BME280;4679;47.966;7.958;2022-09-09T06:16:09;96874.72;;;16.97;74.26
9281;BME280;4679;47.966;7.958;2022-09-09T06:18:11;96887.06;;;16.98;73.73
9281;BME280;4679;47.966;7.958;2022-09-09T06:20:13;96881.91;;;17.01;74.10
9281;BME280;4679;47.966;7.958;2022-09-09T06:22:15;96889.09;;;17.06;73.71
9281;BME280;4679;47.966;7.958;2022-09-09T06:24:17;96879.88;;;17.12;73.71
9281;BME280;4679;47.966;7.958;2022-09-09T06:26:21;96879.28;;;17.15;73.82
9281;BME280;4679;47.966;7.958;2022-09-09T06:28:24;96883.22;;;17.22;73.05
9281;BME280;4679;47.966;7.958;2022-09-09T06:30:26;96876.66;;;17.29;73.50
9281;BME280;4679;47.966;7.958;2022-09-09T06:32:27;96881.69;;;17.35;73.19
9281;BME280;4679;47.966;7.958;2022-09-09T06:34:29;96873.75;;;17.44;72.49
9281;BME280;4679;47.966;7.958;2022-09-09T06:36:32;96868.59;;;17.47;72.40
9281;BME280;4679;47.966;7.958;2022-09-09T06:38:35;96864.03;;;17.48;72.45
9281;BME280;4679;47.966;7.958;2022-09-09T06:40:36;96868.81;;;17.51;72.62
9281;BME280;4679;47.966;7.958;2022-09-09T06:42:38;96861.56;;;17.51;72.60
9281;BME280;4679;47.966;7.958;2022-09-09T06:44:41;96870.41;;;17.52;72.39
9281;BME280;4679;47.966;7.958;2022-09-09T06:46:43;96872.81;;;17.53;72.17
9281;BME280;4679;47.966;7.958;2022-09-09T06:48:48;96877.06;;;17.54;72.14
9281;BME280;4679;47.966;7.958;2022-09-09T06:50:49;96878.97;;;17.54;72.59
9281;BME280;4679;47.966;7.958;2022-09-09T06:52:51;96885.72;;;17.51;72.05
9281;BME280;4679;47.966;7.958;2022-09-09T06:54:53;96880.34;;;17.51;72.20
9281;BME280;4679;47.966;7.958;2022-09-09T06:56:54;96896.16;;;17.53;72.14
9281;BME280;4679;47.966;7.958;2022-09-09T06:58:57;96888.38;;;17.51;71.97
9281;BME280;4679;47.966;7.958;2022-09-09T07:01:04;96892.66;;;17.52;72.14
9281;BME280;4679;47.966;7.958;2022-09-09T07:03:06;96899.63;;;17.53;72.35
9281;BME280;4679;47.966;7.958;2022-09-09T07:05:08;96909.47;;;17.58;71.85
9281;BME280;4679;47.966;7.958;2022-09-09T07:07:10;96900.22;;;17.69;71.61
9281;BME280;4679;47.966;7.958;2022-09-09T07:09:15;96905.09;;;17.81;71.14
9281;BME280;4679;47.966;7.958;2022-09-09T07:11:18;96907.31;;;17.92;70.72
9281;BME280;4679;47.966;7.958;2022-09-09T07:13:23;96907.31;;;18.06;70.69
9281;BME280;4679;47.966;7.958;2022-09-09T07:15:25;96900.47;;;18.14;70.74
9281;BME280;4679;47.966;7.958;2022-09-09T07:17:28;96906.44;;;18.24;70.04
9281;BME280;4679;47.966;7.958;2022-09-09T07:19:30;96900.28;;;18.38;70.04
9281;BME280;4679;47.966;7.958;2022-09-09T07:21:32;96901.88;;;18.52;69.63
9281;BME280;4679;47.966;7.958;2022-09-09T07:23:34;96906.16;;;18.53;69.84
9281;BME280;4679;47.966;7.958;2022-09-09T07:25:36;96900.97;;;18.57;69.60
9281;BME280;4679;47.966;7.958;2022-09-09T07:27:38;96905.94;;;18.50;69.76
9281;BME280;4679;47.966;7.958;2022-09-09T07:29:41;96918.00;;;18.39;69.43
9281;BME280;4679;47.966;7.958;2022-09-09T07:31:42;96911.94;;;18.33;70.06
9281;BME280;4679;47.966;7.958;2022-09-09T07:33:46;96916.31;;;18.29;69.82
9281;BME280;4679;47.966;7.958;2022-09-09T07:35:48;96916.81;;;18.17;70.04
9281;BME280;4679;47.966;7.958;2022-09-09T07:37:50;96920.66;;;18.11;70.17
9281;BME280;4679;47.966;7.958;2022-09-09T07:39:52;96915.00;;;18.13;69.79
9281;BME280;4679;47.966;7.958;2022-09-09T07:41:54;96920.88;;;18.15;69.82
9281;BME280;4679;47.966;7.958;2022-09-09T07:43:56;96925.03;;;18.21;69.16
9281;BME280;4679;47.966;7.958;2022-09-09T07:45:59;96927.56;;;18.45;68.69
9281;BME280;4679;47.966;7.958;2022-09-09T07:48:02;96929.03;;;18.51;68.62
9281;BME280;4679;47.966;7.958;2022-09-09T07:50:06;96922.06;;;18.50;68.78
9281;BME280;4679;47.966;7.958;2022-09-09T07:52:08;96929.97;;;18.46;68.82
9281;BME280;4679;47.966;7.958;2022-09-09T07:54:13;96920.31;;;18.45;68.78
9281;BME280;4679;47.966;7.958;2022-09-09T07:56:16;96925.25;;;18.52;68.60
9281;BME280;4679;47.966;7.958;2022-09-09T07:58:19;96927.94;;;18.52;68.41
9281;BME280;4679;47.966;7.958;2022-09-09T08:00:20;96930.25;;;18.45;68.50
9281;BME280;4679;47.966;7.958;2022-09-09T08:02:22;96929.25;;;18.41;68.68
9281;BME280;4679;47.966;7.958;2022-09-09T08:04:26;96938.19;;;18.36;68.80
9281;BME280;4679;47.966;7.958;2022-09-09T08:06:31;96943.28;;;18.38;68.64
9281;BME280;4679;47.966;7.958;2022-09-09T08:08:34;96936.41;;;18.45;68.60
9281;BME280;4679;47.966;7.958;2022-09-09T08:10:36;96934.81;;;18.58;68.28
9281;BME280;4679;47.966;7.958;2022-09-09T08:12:37;96949.66;;;18.55;67.88
9281;BME280;4679;47.966;7.958;2022-09-09T08:14:39;96947.84;;;18.51;68.17
9281;BME280;4679;47.966;7.958;2022-09-09T08:16:43;96947.84;;;18.51;67.95
9281;BME280;4679;47.966;7.958;2022-09-09T08:18:45;96949.44;;;18.52;68.00
9281;BME280;4679;47.966;7.958;2022-09-09T08:22:55;96963.97;;;18.51;67.99
9281;BME280;4679;47.966;7.958;2022-09-09T08:24:56;96958.81;;;18.41;68.12
9281;BME280;4679;47.966;7.958;2022-09-09T08:26:58;96956.13;;;18.41;68.03
9281;BME280;4679;47.966;7.958;2022-09-09T08:29:02;96957.63;;;18.33;68.50
9281;BME280;4679;47.966;7.958;2022-09-09T08:31:08;96949.84;;;18.32;68.02
9281;BME280;4679;47.966;7.958;2022-09-09T08:33:10;96959.38;;;18.38;67.72
9281;BME280;4679;47.966;7.958;2022-09-09T08:35:12;96935.50;;;18.36;67.82
9281;BME280;4679;47.966;7.958;2022-09-09T08:37:14;96936.81;;;18.52;67.43
9281;BME280;4679;47.966;7.958;2022-09-09T08:39:18;96944.00;;;18.84;66.69
9281;BME280;4679;47.966;7.958;2022-09-09T08:41:38;96940.75;;;19.10;66.05
9281;BME280;4679;47.966;7.958;2022-09-09T08:43:43;96942.19;;;19.29;65.30
9281;BME280;4679;47.966;7.958;2022-09-09T08:45:50;96937.75;;;19.47;64.88
9281;BME280;4679;47.966;7.958;2022-09-09T08:48:07;96938.22;;;19.63;64.56
9281;BME280;4679;47.966;7.958;2022-09-09T08:50:19;96945.41;;;19.67;64.67
9281;BME280;4679;47.966;7.958;2022-09-09T08:52:27;96934.78;;;19.71;64.22
9281;BME280;4679;47.966;7.958;2022-09-09T08:54:34;96939.03;;;19.86;63.83
9281;BME280;4679;47.966;7.958;2022-09-09T08:56:36;96946.88;;;20.05;63.22
9281;BME280;4679;47.966;7.958;2022-09-09T08:58:43;96942.38;;;20.22;63.01
9281;BME280;4679;47.966;7.958;2022-09-09T09:01:01;96945.94;;;20.31;62.64
9281;BME280;4679;47.966;7.958;2022-09-09T09:03:09;96944.19;;;20.35;62.21
9281;BME280;4679;47.966;7.958;2022-09-09T09:05:20;96942.56;;;20.57;61.94
9281;BME280;4679;47.966;7.958;2022-09-09T09:07:33;96943.13;;;20.76;61.56
9281;BME280;4679;47.966;7.958;2022-09-09T09:09:46;96950.13;;;20.94;61.20
9281;BME280;4679;47.966;7.958;2022-09-09T09:11:54;96941.78;;;20.56;61.68
9281;BME280;4679;47.966;7.958;2022-09-09T09:14:03;96941.22;;;20.37;61.68
9281;BME280;4679;47.966;7.958;2022-09-09T09:16:15;96940.47;;;20.45;61.03
9281;BME280;4679;47.966;7.958;2022-09-09T09:18:19;96944.16;;;20.58;60.85
9281;BME280;4679;47.966;7.958;2022-09-09T09:20:32;96936.06;;;20.58;60.62
9281;BME280;4679;47.966;7.958;2022-09-09T09:22:39;96933.88;;;20.60;60.13
9281;BME280;4679;47.966;7.958;2022-09-09T09:24:51;96949.16;;;20.82;59.81
9281;BME280;4679;47.966;7.958;2022-09-09T09:26:53;96942.81;;;20.86;59.49
9281;BME280;4679;47.966;7.958;2022-09-09T09:28:56;96948.38;;;20.90;59.45
9281;BME280;4679;47.966;7.958;2022-09-09T09:31:03;96946.63;;;20.85;59.43
9281;BME280;4679;47.966;7.958;2022-09-09T09:33:11;96938.56;;;21.02;59.08
9281;BME280;4679;47.966;7.958;2022-09-09T09:35:15;96948.44;;;21.07;58.87
9281;BME280;4679;47.966;7.958;2022-09-09T09:37:23;96944.59;;;20.99;58.47
9281;BME280;4679;47.966;7.958;2022-09-09T09:39:30;96940.22;;;21.21;58.21
9281;BME280;4679;47.966;7.958;2022-09-09T09:41:39;96939.09;;;21.39;57.73
9281;BME280;4679;47.966;7.958;2022-09-09T09:43:53;96933.88;;;21.42;57.41
9281;BME280;4679;47.966;7.958;2022-09-09T09:45:56;96924.84;;;21.38;57.53
9281;BME280;4679;47.966;7.958;2022-09-09T09:48:00;96933.06;;;21.42;56.82
9281;BME280;4679;47.966;7.958;2022-09-09T09:50:03;96928.28;;;21.39;57.05
9281;BME280;4679;47.966;7.958;2022-09-09T09:52:06;96927.66;;;21.42;56.93
9281;BME280;4679;47.966;7.958;2022-09-09T09:54:15;96935.63;;;21.64;56.59
9281;BME280;4679;47.966;7.958;2022-09-09T09:56:26;96931.81;;;21.48;56.28
9281;BME280;4679;47.966;7.958;2022-09-09T09:58:32;96920.66;;;21.75;55.59
9281;BME280;4679;47.966;7.958;2022-09-09T10:00:34;96925.72;;;22.03;55.15
9281;BME280;4679;47.966;7.958;2022-09-09T10:02:39;96920.78;;;22.05;55.12
9281;BME280;4679;47.966;7.958;2022-09-09T10:04:43;96918.88;;;21.97;55.12
9281;BME280;4679;47.966;7.958;2022-09-09T10:06:46;96936.19;;;22.04;54.84
9281;BME280;4679;47.966;7.958;2022-09-09T10:08:48;96923.00;;;22.03;54.44
9281;BME280;4679;47.966;7.958;2022-09-09T10:11:15;96913.31;;;22.02;54.39
9281;BME280;4679;47.966;7.958;2022-09-09T10:13:25;96908.97;;;22.18;54.27
9281;BME280;4679;47.966;7.958;2022-09-09T10:15:38;96913.28;;;22.57;53.19
9281;BME280;4679;47.966;7.958;2022-09-09T10:17:54;96912.59;;;22.69;53.10
9281;BME280;4679;47.966;7.958;2022-09-09T10:20:06;96918.09;;;22.81;52.84
9281;BME280;4679;47.966;7.958;2022-09-09T10:22:22;96921.09;;;22.88;52.71
9281;BME280;4679;47.966;7.958;2022-09-09T10:24:41;96923.16;;;22.53;52.96
9281;BME280;4679;47.966;7.958;2022-09-09T10:26:49;96914.03;;;22.28;53.58
9281;BME280;4679;47.966;7.958;2022-09-09T10:29:07;96914.03;;;22.28;53.26
9281;BME280;4679;47.966;7.958;2022-09-09T10:31:19;96896.97;;;22.36;52.90
9281;BME280;4679;47.966;7.958;2022-09-09T10:33:28;96909.25;;;22.63;52.19
9281;BME280;4679;47.966;7.958;2022-09-09T10:35:35;96905.25;;;22.40;52.49
9281;BME280;4679;47.966;7.958;2022-09-09T10:38:14;96908.84;;;22.06;52.95
9281;BME280;4679;47.966;7.958;2022-09-09T10:40:26;96907.50;;;21.65;53.30
9281;BME280;4679;47.966;7.958;2022-09-09T10:42:31;96915.94;;;21.38;53.83
9281;BME280;4679;47.966;7.958;2022-09-09T10:44:50;96920.97;;;21.14;54.21
9281;BME280;4679;47.966;7.958;2022-09-09T10:47:11;96925.84;;;20.86;54.67
9281;BME280;4679;47.966;7.958;2022-09-09T10:49:23;96919.75;;;20.63;54.91
9281;BME280;4679;47.966;7.958;2022-09-09T10:51:35;96922.53;;;20.41;55.28
9281;BME280;4679;47.966;7.958;2022-09-09T10:53:48;96927.94;;;20.18;55.96
9281;BME280;4679;47.966;7.958;2022-09-09T10:55:56;96930.88;;;19.99;56.72
9281;BME280;4679;47.966;7.958;2022-09-09T10:58:03;96926.44;;;20.03;56.49
9281;BME280;4679;47.966;7.958;2022-09-09T11:00:13;96922.53;;;20.41;56.23
9281;BME280;4679;47.966;7.958;2022-09-09T11:02:21;96915.06;;;20.38;56.21
9281;BME280;4679;47.966;7.958;2022-09-09T11:04:29;96926.94;;;20.36;56.81
9281;BME280;4679;47.966;7.958;2022-09-09T11:06:39;96921.50;;;20.28;56.78
9281;BME280;4679;47.966;7.958;2022-09-09T11:08:42;96923.66;;;20.17;57.46
9281;BME280;4679;47.966;7.958;2022-09-09T11:10:46;96925.31;;;20.35;57.01
9281;BME280;4679;47.966;7.958;2022-09-09T11:12:57;96928.47;;;20.60;56.47
9281;BME280;4679;47.966;7.958;2022-09-09T11:15:04;96925.19;;;20.80;56.00
9281;BME280;4679;47.966;7.958;2022-09-09T11:17:10;96928.31;;;20.65;56.39
9281;BME280;4679;47.966;7.958;2022-09-09T11:19:18;96923.69;;;20.57;57.01
9281;BME280;4679;47.966;7.958;2022-09-09T11:21:26;96926.81;;;20.42;56.88
9281;BME280;4679;47.966;7.958;2022-09-09T11:23:37;96931.72;;;20.40;57.09
9281;BME280;4679;47.966;7.958;2022-09-09T11:25:44;96930.44;;;20.37;56.98
9281;BME280;4679;47.966;7.958;2022-09-09T11:30:18;96931.13;;;20.20;57.12
9281;BME280;4679;47.966;7.958;2022-09-09T11:32:36;96926.22;;;20.22;56.79
9281;BME280;4679;47.966;7.958;2022-09-09T11:34:51;96928.72;;;20.19;57.11
9281;BME280;4679;47.966;7.958;2022-09-09T11:37:08;96931.31;;;20.24;56.95
9281;BME280;4679;47.966;7.958;2022-09-09T11:39:38;96940.19;;;20.24;57.25
9281;BME280;4679;47.966;7.958;2022-09-09T11:41:46;96934.03;;;20.32;56.90
9281;BME280;4679;47.966;7.958;2022-09-09T11:43:51;96943.63;;;20.47;56.79
9281;BME280;4679;47.966;7.958;2022-09-09T11:45:54;96945.28;;;20.65;56.46
9281;BME280;4679;47.966;7.958;2022-09-09T11:48:00;96935.66;;;20.73;56.36
9281;BME280;4679;47.966;7.958;2022-09-09T11:50:28;96948.75;;;21.14;55.92
9281;BME280;4679;47.966;7.958;2022-09-09T11:52:37;96928.16;;;21.53;54.90
9281;BME280;4679;47.966;7.958;2022-09-09T11:54:46;96936.84;;;21.93;54.10
9281;BME280;4679;47.966;7.958;2022-09-09T11:56:48;96940.94;;;22.16;53.77
9281;BME280;4679;47.966;7.958;2022-09-09T11:58:55;96940.81;;;22.59;53.26
9281;BME280;4679;47.966;7.958;2022-09-09T12:00:58;96931.94;;;22.88;52.79
9281;BME280;4679;47.966;7.958;2022-09-09T12:03:00;96936.06;;;22.86;52.69
9281;BME280;4679;47.966;7.958;2022-09-09T12:05:05;96935.25;;;22.56;53.62
9281;BME280;4679;47.966;7.958;2022-09-09T12:07:29;96934.41;;;22.17;54.14
9281;BME280;4679;47.966;7.958;2022-09-09T12:09:42;96931.75;;;22.00;54.48
9281;BME280;4679;47.966;7.958;2022-09-09T12:11:45;96939.09;;;21.73;54.67
9281;BME280;4679;47.966;7.958;2022-09-09T12:13:52;96946.59;;;21.51;54.79
9281;BME280;4679;47.966;7.958;2022-09-09T12:15:55;96943.09;;;21.50;55.01
9281;BME280;4679;47.966;7.958;2022-09-09T12:17:58;96946.09;;;21.57;54.68
9281;BME280;4679;47.966;7.958;2022-09-09T12:20:09;96934.94;;;21.85;54.21
9281;BME280;4679;47.966;7.958;2022-09-09T12:22:20;96935.56;;;21.90;53.51
9281;BME280;4679;47.966;7.958;2022-09-09T12:24:32;96923.03;;;21.77;53.86
9281;BME280;4679;47.966;7.958;2022-09-09T12:26:41;96933.38;;;21.58;54.16
9281;BME280;4679;47.966;7.958;2022-09-09T12:28:53;96924.50;;;21.49;54.06
9281;BME280;4679;47.966;7.958;2022-09-09T12:31:01;96927.56;;;22.20;52.73
9281;BME280;4679;47.966;7.958;2022-09-09T12:33:11;96919.38;;;22.45;51.81
9281;BME280;4679;47.966;7.958;2022-09-09T12:35:20;96921.94;;;22.80;51.42
9281;BME280;4679;47.966;7.958;2022-09-09T12:37:28;96923.06;;;22.70;51.07
9281;BME280;4679;47.966;7.958;2022-09-09T12:39:35;96919.44;;;22.96;50.86
9281;BME280;4679;47.966;7.958;2022-09-09T12:41:39;96920.47;;;23.33;49.89
9281;BME280;4679;47.966;7.958;2022-09-09T12:43:41;96911.56;;;23.32;49.76
9281;BME280;4679;47.966;7.958;2022-09-09T12:45:43;96912.72;;;23.02;50.00
9281;BME280;4679;47.966;7.958;2022-09-09T12:47:48;96908.47;;;22.63;50.93
9281;BME280;4679;47.966;7.958;2022-09-09T12:49:52;96903.75;;;22.51;50.94
9281;BME280;4679;47.966;7.958;2022-09-09T12:51:56;96899.03;;;22.39;51.27
9281;BME280;4679;47.966;7.958;2022-09-09T12:53:59;96918.19;;;22.26;51.29
9281;BME280;4679;47.966;7.958;2022-09-09T12:56:04;96912.03;;;22.08;51.62
9281;BME280;4679;47.966;7.958;2022-09-09T12:58:13;96918.09;;;22.05;51.68
9281;BME280;4679;47.966;7.958;2022-09-09T13:00:20;96911.25;;;21.99;52.06
9281;BME280;4679;47.966;7.958;2022-09-09T13:02:25;96916.69;;;21.82;51.86
9281;BME280;4679;47.966;7.958;2022-09-09T13:04:28;96908.41;;;21.69;52.28
9281;BME280;4679;47.966;7.958;2022-09-09T13:06:31;96904.47;;;21.58;52.50
9281;BME280;4679;47.966;7.958;2022-09-09T13:08:33;96911.78;;;21.49;52.69
9281;BME280;4679;47.966;7.958;2022-09-09T13:10:38;96922.44;;;21.28;53.13
9281;BME280;4679;47.966;7.958;2022-09-09T13:12:43;96915.13;;;21.20;53.17
9281;BME280;4679;47.966;7.958;2022-09-09T13:14:46;96907.78;;;21.12;53.21
9281;BME280;4679;47.966;7.958;2022-09-09T13:16:57;96905.88;;;21.04;52.98
9281;BME280;4679;47.966;7.958;2022-09-09T13:19:00;96905.06;;;20.95;53.39
9281;BME280;4679;47.966;7.958;2022-09-09T13:21:03;96899.19;;;20.84;53.52
9281;BME280;4679;47.966;7.958;2022-09-09T13:23:05;96911.50;;;20.68;53.74
9281;BME280;4679;47.966;7.958;2022-09-09T13:25:18;96903.53;;;20.54;53.91
9281;BME280;4679;47.966;7.958;2022-09-09T13:27:26;96914.78;;;20.48;53.88
9281;BME280;4679;47.966;7.958;2022-09-09T13:29:32;96920.88;;;20.31;54.61
9281;BME280;4679;47.966;7.958;2022-09-09T13:31:36;96951.06;;;19.88;55.37
9281;BME280;4679;47.966;7.958;2022-09-09T13:33:39;96938.38;;;19.44;56.20
9281;BME280;4679;47.966;7.958;2022-09-09T13:35:46;96939.72;;;19.33;56.75
9281;BME280;4679;47.966;7.958;2022-09-09T13:37:49;96944.38;;;19.05;57.17
9281;BME280;4679;47.966;7.958;2022-09-09T13:39:51;96957.84;;;18.91;57.81
9281;BME280;4679;47.966;7.958;2022-09-09T13:41:54;96953.16;;;18.70;58.26
9281;BME280;4679;47.966;7.958;2022-09-09T13:43:58;96948.56;;;18.56;58.49
9281;BME280;4679;47.966;7.958;2022-09-09T13:46:03;96939.50;;;18.93;57.89
9281;BME280;4679;47.966;7.958;2022-09-09T13:48:09;96935.19;;;19.42;57.17
9281;BME280;4679;47.966;7.958;2022-09-09T13:50:19;96930.69;;;19.96;56.11
9281;BME280;4679;47.966;7.958;2022-09-09T13:52:21;96928.91;;;20.22;55.94
9281;BME280;4679;47.966;7.958;2022-09-09T13:54:23;96935.09;;;20.54;55.65
9281;BME280;4679;47.966;7.958;2022-09-09T13:56:25;96929.78;;;20.71;55.66
9281;BME280;4679;47.966;7.958;2022-09-09T13:58:27;96932.38;;;21.02;55.33
9281;BME280;4679;47.966;7.958;2022-09-09T14:00:30;96924.50;;;21.31;54.83
9281;BME280;4679;47.966;7.958;2022-09-09T14:02:34;96919.25;;;21.35;54.98
9281;BME280;4679;47.966;7.958;2022-09-09T14:04:35;96928.28;;;21.39;55.26
9281;BME280;4679;47.966;7.958;2022-09-09T14:06:38;96923.84;;;21.77;54.58
9281;BME280;4679;47.966;7.958;2022-09-09T14:08:40;96923.00;;;22.03;54.13
9281;BME280;4679;47.966;7.958;2022-09-09T14:10:42;96921.41;;;22.02;54.22
9281;BME280;4679;47.966;7.958;2022-09-09T14:12:44;96915.88;;;21.72;54.27
9281;BME280;4679;47.966;7.958;2022-09-09T14:14:46;96917.94;;;22.01;53.73
9281;BME280;4679;47.966;7.958;2022-09-09T14:16:48;96916.06;;;22.31;53.10
9281;BME280;4679;47.966;7.958;2022-09-09T14:18:51;96900.72;;;22.53;52.76
9281;BME280;4679;47.966;7.958;2022-09-09T14:20:53;96918.59;;;22.74;52.19
9281;BME280;4679;47.966;7.958;2022-09-09T14:22:55;96911.84;;;22.60;52.52
9281;BME280;4679;47.966;7.958;2022-09-09T14:24:57;96917.34;;;22.72;52.32
9281;BME280;4679;47.966;7.958;2022-09-09T14:26:59;96906.06;;;22.70;52.03
9281;BME280;4679;47.966;7.958;2022-09-09T14:29:01;96906.75;;;22.58;52.39
9281;BME280;4679;47.966;7.958;2022-09-09T14:31:03;96906.22;;;22.35;52.18
9281;BME280;4679;47.966;7.958;2022-09-09T14:33:05;96907.22;;;22.60;51.99
9281;BME280;4679;47.966;7.958;2022-09-09T14:35:09;96914.47;;;22.77;51.63
9281;BME280;4679;47.966;7.958;2022-09-09T14:37:11;96912.13;;;22.96;51.15
9281;BME280;4679;47.966;7.958;2022-09-09T14:39:13;96913.44;;;22.61;51.97
9281;BME280;4679;47.966;7.958;2022-09-09T14:41:17;96905.63;;;22.21;52.57
9281;BME280;4679;47.966;7.958;2022-09-09T14:43:19;96909.47;;;22.50;52.18
9281;BME280;4679;47.966;7.958;2022-09-09T14:45:21;96916.91;;;22.61;51.76
9281;BME280;4679;47.966;7.958;2022-09-09T14:47:25;96910.59;;;22.87;51.28
9281;BME280;4679;47.966;7.958;2022-09-09T14:49:26;96911.56;;;23.32;50.59
9281;BME280;4679;47.966;7.958;2022-09-09T14:51:29;96908.56;;;23.46;50.38
9281;BME280;4679;47.966;7.958;2022-09-09T14:53:31;96906.72;;;23.38;50.53
9281;BME280;4679;47.966;7.958;2022-09-09T14:55:33;96902.84;;;23.27;50.78
9281;BME280;4679;47.966;7.958;2022-09-09T14:57:34;96900.84;;;23.15;50.89
9281;BME280;4679;47.966;7.958;2022-09-09T14:59:36;96890.00;;;22.94;50.99
9281;BME280;4679;47.966;7.958;2022-09-09T15:01:38;96892.13;;;22.89;51.32
9281;BME280;4679;47.966;7.958;2022-09-09T15:03:41;96900.25;;;23.09;51.09
9281;BME280;4679;47.966;7.958;2022-09-09T15:05:43;96897.94;;;22.99;51.08
9281;BME280;4679;47.966;7.958;2022-09-09T15:07:47;96902.47;;;22.57;52.13
9281;BME280;4679;47.966;7.958;2022-09-09T15:09:49;96894.88;;;22.80;51.46
9281;BME280;4679;47.966;7.958;2022-09-09T15:11:52;96903.53;;;22.94;51.42
9281;BME280;4679;47.966;7.958;2022-09-09T15:13:54;96910.22;;;22.97;51.02
9281;BME280;4679;47.966;7.958;2022-09-09T15:15:56;96896.19;;;22.65;51.65
9281;BME280;4679;47.966;7.958;2022-09-09T15:17:58;96892.84;;;22.39;52.43
9281;BME280;4679;47.966;7.958;2022-09-09T15:20:00;96897.84;;;22.20;52.53
9281;BME280;4679;47.966;7.958;2022-09-09T15:22:01;96893.75;;;22.14;52.33
9281;BME280;4679;47.966;7.958;2022-09-09T15:24:05;96902.03;;;21.91;52.84
9281;BME280;4679;47.966;7.958;2022-09-09T15:26:09;96902.88;;;21.74;52.94
9281;BME280;4679;47.966;7.958;2022-09-09T15:28:11;96902.69;;;21.71;53.00
9281;BME280;4679;47.966;7.958;2022-09-09T15:30:13;96906.03;;;21.76;52.84
9281;BME280;4679;47.966;7.958;2022-09-09T15:32:14;96909.88;;;21.50;53.32
9281;BME280;4679;47.966;7.958;2022-09-09T15:34:16;96900.38;;;21.35;53.59
9281;BME280;4679;47.966;7.958;2022-09-09T15:36:23;96904.63;;;21.19;53.86
9281;BME280;4679;47.966;7.958;2022-09-09T15:38:24;96905.25;;;21.16;53.89
9281;BME280;4679;47.966;7.958;2022-09-09T15:40:28;96902.75;;;21.19;53.44
9281;BME280;4679;47.966;7.958;2022-09-09T15:42:32;96911.75;;;21.15;53.88
9281;BME280;4679;47.966;7.958;2022-09-09T15:44:40;96910.31;;;21.08;53.96
9281;BME280;4679;47.966;7.958;2022-09-09T15:46:44;96904.78;;;21.05;54.13
9281;BME280;4679;47.966;7.958;2022-09-09T15:48:46;96912.69;;;21.01;54.00
9281;BME280;4679;47.966;7.958;2022-09-09T15:51:01;96916.00;;;20.90;54.33
9281;BME280;4679;47.966;7.958;2022-09-09T15:53:03;96905.50;;;20.80;54.41
9281;BME280;4679;47.966;7.958;2022-09-09T15:55:06;96901.84;;;20.67;54.68
9281;BME280;4679;47.966;7.958;2022-09-09T15:57:11;96908.50;;;20.61;55.02
9281;BME280;4679;47.966;7.958;2022-09-09T15:59:13;96903.06;;;20.52;54.89
9281;BME280;4679;47.966;7.958;2022-09-09T16:01:16;96907.16;;;20.41;55.02
9281;BME280;4679;47.966;7.958;2022-09-09T16:03:19;96909.06;;;20.41;54.80
9281;BME280;4679;47.966;7.958;2022-09-09T16:05:21;96909.75;;;20.24;55.06
9281;BME280;4679;47.966;7.958;2022-09-09T16:07:23;96908.81;;;20.28;55.03
9281;BME280;4679;47.966;7.958;2022-09-09T16:09:25;96906.38;;;20.18;55.08
9281;BME280;4679;47.966;7.958;2022-09-09T16:11:30;96905.56;;;20.09;55.14
9281;BME280;4679;47.966;7.958;2022-09-09T16:13:35;96896.69;;;20.09;55.15
9281;BME280;4679;47.966;7.958;2022-09-09T16:15:37;96901.56;;;20.07;55.58
9281;BME280;4679;47.966;7.958;2022-09-09T16:17:38;96904.72;;;20.00;55.53
9281;BME280;4679;47.966;7.958;2022-09-09T16:19:40;96904.25;;;19.98;55.77
9281;BME280;4679;47.966;7.958;2022-09-09T16:21:44;96901.78;;;19.88;56.07
9281;BME280;4679;47.966;7.958;2022-09-09T16:23:47;96912.34;;;19.76;56.28
9281;BME280;4679;47.966;7.958;2022-09-09T16:25:53;96920.00;;;19.60;56.60
9281;BME280;4679;47.966;7.958;2022-09-09T16:27:55;96927.56;;;19.58;56.96
9281;BME280;4679;47.966;7.958;2022-09-09T16:29:58;96941.84;;;19.45;57.21
9281;BME280;4679;47.966;7.958;2022-09-09T16:32:00;96943.09;;;19.25;57.71
9281;BME280;4679;47.966;7.958;2022-09-09T16:34:02;96956.75;;;18.92;58.57
9281;BME280;4679;47.966;7.958;2022-09-09T16:36:05;96960.63;;;18.73;59.23
9281;BME280;4679;47.966;7.958;2022-09-09T16:38:08;96968.69;;;18.59;59.56
9281;BME280;4679;47.966;7.958;2022-09-09T16:40:10;96977.03;;;18.44;60.29
9281;BME280;4679;47.966;7.958;2022-09-09T16:42:12;96970.31;;;18.14;60.98
9281;BME280;4679;47.966;7.958;2022-09-09T16:44:15;96979.44;;;17.99;61.33
9281;BME280;4679;47.966;7.958;2022-09-09T16:46:20;96969.78;;;17.98;62.01
9281;BME280;4679;47.966;7.958;2022-09-09T16:48:22;96980.50;;;17.98;62.00
9281;BME280;4679;47.966;7.958;2022-09-09T16:50:24;96981.28;;;17.85;62.60
9281;BME280;4679;47.966;7.958;2022-09-09T16:52:26;96985.69;;;17.76;62.76
9281;BME280;4679;47.966;7.958;2022-09-09T16:54:28;96989.31;;;17.85;62.78
9281;BME280;4679;47.966;7.958;2022-09-09T16:56:31;96999.66;;;17.91;62.79
9281;BME280;4679;47.966;7.958;2022-09-09T16:58:34;96991.72;;;17.86;63.23
9281;BME280;4679;47.966;7.958;2022-09-09T17:00:37;96991.34;;;17.74;63.61
9281;BME280;4679;47.966;7.958;2022-09-09T17:02:40;96988.38;;;17.76;63.98
9281;BME280;4679;47.966;7.958;2022-09-09T17:04:41;96986.19;;;17.78;64.42